Time;durP1;ratioP1;P1;durP2;ratioP2;P2;SDS_P1;SDS_P2;PMS_P1;PMS_P2;Temp;Humidity;BMP_temperature;BMP_pressure;BME280_temperature;BME280_humidity;BME280_pressure;Samples;Min_cycle;Max_cycle;Signal;HPM_P1;HPM_P2
2022/09/22 00:01:40;;;;;;;37.67;13.50;;;;;;;9.81;91.79;101527.77;4987539;58;1141108;-68
2022/09/22 00:06:50;;;;;;;35.57;10.33;;;;;;;9.83;91.64;101531.64;4989349;58;1141122;-73
2022/09/22 00:11:56;;;;;;;27.80;9.90;;;;;;;9.70;90.62;101526.70;4987541;58;1141452;-72
2022/09/22 00:17:02;;;;;;;35.37;13.13;;;;;;;9.38;89.99;101532.02;4953057;58;1139019;-74
2022/09/22 00:22:08;;;;;;;29.20;11.87;;;;;;;9.29;90.82;101527.74;4989647;59;1141110;-72
2022/09/22 00:27:14;;;;;;;33.20;13.73;;;;;;;9.37;91.38;101525.04;4949667;59;1141069;-73
2022/09/22 00:32:19;;;;;;;25.73;10.23;;;;;;;9.26;90.97;101523.95;4918432;58;1141487;-74
2022/09/22 00:37:26;;;;;;;39.00;11.87;;;;;;;9.21;91.00;101524.20;4911267;59;1141072;-73
2022/09/22 00:42:31;;;;;;;26.53;10.73;;;;;;;8.97;90.51;101530.38;4916256;59;1141132;-74
2022/09/22 00:47:43;;;;;;;35.17;10.43;;;;;;;8.91;91.00;101525.42;4982377;59;1141132;-73
2022/09/22 00:53:11;;;;;;;26.50;8.93;;;;;;;8.79;90.33;101528.27;4986664;59;1141242;-74
2022/09/22 00:58:22;;;;;;;26.20;8.18;;;;;;;8.73;90.75;101533.86;4993682;58;1136928;-74
2022/09/22 01:03:29;;;;;;;16.97;7.17;;;;;;;8.84;91.92;101529.34;4935650;58;1137176;-73
2022/09/22 01:08:36;;;;;;;34.60;8.83;;;;;;;8.87;91.18;101523.88;5001965;57;1136963;-75
2022/09/22 01:14:22;;;;;;;21.07;6.33;;;;;;;8.87;91.77;101524.34;4915463;59;1137000;-73
2022/09/22 01:20:11;;;;;;;32.08;6.90;;;;;;;8.89;91.67;101527.29;5046060;57;1135241;-75
2022/09/22 01:25:55;;;;;;;14.27;4.83;;;;;;;8.61;90.52;101538.48;4924382;59;1137051;-72
2022/09/22 01:31:22;;;;;;;19.60;5.85;;;;;;;8.58;91.74;101528.55;5066626;57;1137166;-73
2022/09/22 01:36:42;;;;;;;19.20;6.33;;;;;;;8.66;92.15;101521.95;5050878;57;1139060;-75
2022/09/22 01:41:52;;;;;;;15.47;5.83;;;;;;;8.77;92.05;101523.53;4986520;58;1138962;-72
2022/09/22 01:47:20;;;;;;;24.27;6.17;;;;;;;8.84;91.93;101511.34;5041807;58;1138950;-74
2022/09/22 01:52:32;;;;;;;16.10;6.20;;;;;;;8.84;91.81;101513.98;5086722;57;1139019;-75
2022/09/22 01:57:51;;;;;;;14.57;6.67;;;;;;;8.79;91.58;101518.18;5128808;57;1138957;-73
2022/09/22 02:03:04;;;;;;;17.57;6.97;;;;;;;8.74;91.38;101513.61;5113087;56;1138794;-73
2022/09/22 02:08:34;;;;;;;17.70;8.13;;;;;;;8.68;91.27;101512.17;5068008;57;1134843;-74
2022/09/22 02:13:40;;;;;;;21.07;8.00;;;;;;;8.58;90.85;101516.22;5068219;57;1134859;-73
2022/09/22 02:19:22;;;;;;;10.97;4.47;;;;;;;8.53;91.08;101517.42;5068218;57;1136909;-72
2022/09/22 02:24:41;;;;;;;6.53;4.30;;;;;;;8.56;91.44;101522.03;5068210;57;1137127;-73
2022/09/22 02:30:07;;;;;;;14.77;4.30;;;;;;;8.57;91.37;101513.19;4966235;59;1132833;-72
2022/09/22 02:35:13;;;;;;;12.07;3.50;;;;;;;8.56;91.40;101510.17;5045576;58;1139004;-74
2022/09/22 02:40:45;;;;;;;8.20;4.20;;;;;;;8.53;91.12;101513.00;5044256;58;1139055;-72
2022/09/22 02:46:19;;;;;;;6.77;3.63;;;;;;;8.43;90.71;101506.02;5086757;57;1134731;-74
2022/09/22 02:51:25;;;;;;;12.40;4.03;;;;;;;8.30;90.68;101504.94;5162384;56;1135101;-73
2022/09/22 02:56:30;;;;;;;17.50;4.00;;;;;;;8.22;90.92;101506.28;5138007;57;1136927;-72
2022/09/22 03:01:37;;;;;;;19.73;3.40;;;;;;;8.17;90.62;101505.20;5161894;56;1139004;-74
2022/09/22 03:06:43;;;;;;;10.27;4.97;;;;;;;8.14;90.67;101510.62;5138229;56;1139134;-72
2022/09/22 03:11:48;;;;;;;9.40;3.30;;;;;;;8.08;90.31;101511.80;5138020;56;1138995;-73
2022/09/22 03:16:54;;;;;;;5.80;3.17;;;;;;;7.85;89.87;101509.94;5137952;56;1136916;-74
2022/09/22 03:22:00;;;;;;;14.33;4.00;;;;;;;7.64;90.36;101508.75;5137842;56;1135060;-73
2022/09/22 03:27:06;;;;;;;6.07;3.33;;;;;;;7.59;91.34;101505.52;5174371;56;1136903;-72
2022/09/22 03:32:12;;;;;;;6.33;3.70;;;;;;;7.62;91.89;101503.20;5188841;56;1134841;-72
2022/09/22 03:37:18;;;;;;;8.23;3.43;;;;;;;7.62;91.74;101511.10;5143592;56;1134930;-73
2022/09/22 03:42:23;;;;;;;5.00;3.33;;;;;;;7.66;91.86;101524.02;5106168;57;1136893;-74
2022/09/22 03:47:29;;;;;;;5.87;3.17;;;;;;;7.71;91.73;101514.58;5137597;57;1136918;-72
2022/09/22 03:52:35;;;;;;;5.23;2.70;;;;;;;7.76;91.73;101517.84;5179896;56;1136890;-74
2022/09/22 03:57:42;;;;;;;4.15;3.50;;;;;;;7.76;91.70;101515.22;5103087;56;1136855;-72
2022/09/22 04:02:48;;;;;;;6.07;3.30;;;;;;;7.58;90.53;101516.97;5143179;56;1135042;-74
2022/09/22 04:07:54;;;;;;;9.30;3.67;;;;;;;7.32;90.90;101508.19;5129126;57;1134837;-72
2022/09/22 04:13:01;;;;;;;22.03;6.57;;;;;;;7.17;91.22;101500.56;5129296;57;1134960;-73
2022/09/22 04:18:07;;;;;;;18.10;6.20;;;;;;;7.12;91.92;101496.44;5156203;56;1136985;-74
2022/09/22 04:23:16;;;;;;;21.13;6.57;;;;;;;7.14;92.13;101503.80;5148748;56;1139148;-73
2022/09/22 04:28:22;;;;;;;22.47;6.43;;;;;;;7.23;92.48;101500.25;5188429;56;1139045;-74
2022/09/22 04:33:28;;;;;;;18.03;6.27;;;;;;;7.33;92.80;101504.13;5163685;56;1139318;-73
2022/09/22 04:38:34;;;;;;;38.07;6.30;;;;;;;7.34;92.24;101508.47;5168165;56;1139020;-73
2022/09/22 04:43:41;;;;;;;34.00;7.00;;;;;;;7.31;92.14;101502.53;5160030;56;1134808;-73
2022/09/22 04:48:47;;;;;;;30.10;6.90;;;;;;;7.24;92.11;101507.22;5136577;56;1134810;-72
2022/09/22 04:53:53;;;;;;;23.10;4.67;;;;;;;7.20;92.11;101512.70;5074673;57;1134863;-72
2022/09/22 04:58:59;;;;;;;31.80;6.47;;;;;;;7.16;92.29;101515.11;5121946;57;1134777;-72
2022/09/22 05:04:05;;;;;;;38.23;6.33;;;;;;;7.12;91.96;101512.22;5105410;57;1136940;-72
2022/09/22 05:09:11;;;;;;;25.03;5.73;;;;;;;7.14;92.12;101512.55;5067807;57;1137078;-71
2022/09/22 05:14:17;;;;;;;14.33;5.13;;;;;;;7.01;91.65;101521.94;5151436;57;1136946;-71
2022/09/22 05:19:24;;;;;;;19.37;5.60;;;;;;;6.86;92.68;101528.77;5151655;57;1134806;-71
2022/09/22 05:24:30;;;;;;;17.50;4.97;;;;;;;6.94;94.08;101526.62;5151246;56;1134782;-71
2022/09/22 05:29:36;;;;;;;11.83;4.53;;;;;;;7.00;94.17;101522.41;5122073;57;1134972;-72
2022/09/22 05:34:43;;;;;;;7.10;4.63;;;;;;;6.90;93.93;101521.56;5146896;56;1134952;-72
2022/09/22 05:39:48;;;;;;;8.60;4.40;;;;;;;6.90;94.71;101518.94;5143179;56;1134882;-72
2022/09/22 05:44:54;;;;;;;6.57;3.23;;;;;;;7.02;95.51;101521.02;5185105;56;1134892;-72
2022/09/22 05:50:00;;;;;;;3.67;2.83;;;;;;;7.28;96.77;101521.09;5131136;56;1135500;-73
2022/09/22 05:55:07;;;;;;;7.37;3.13;;;;;;;7.49;97.36;101524.45;5219337;56;1134967;-72
2022/09/22 06:00:13;;;;;;;4.43;3.73;;;;;;;7.61;98.43;101529.99;5125144;56;1134786;-72
2022/09/22 06:05:19;;;;;;;3.87;3.47;;;;;;;7.62;99.02;101533.02;5018483;58;1134885;-72
2022/09/22 06:10:25;;;;;;;12.47;5.12;;;;;;;7.72;99.49;101532.09;5050395;58;1134837;-72
2022/09/22 06:15:34;;;;;;;16.43;6.57;;;;;;;7.92;100.00;101535.05;5050702;58;1134750;-72
2022/09/22 06:20:40;;;;;;;12.88;6.85;;;;;;;8.21;100.00;101532.25;5070362;58;1141111;-73
2022/09/22 06:25:45;;;;;;;9.88;5.10;;;;;;;8.49;100.00;101536.50;4982587;57;1140742;-72
2022/09/22 06:30:51;;;;;;;9.83;4.10;;;;;;;8.81;100.00;101544.02;5224178;56;1139126;-72
2022/09/22 06:35:57;;;;;;;5.20;4.33;;;;;;;8.99;100.00;101532.47;5204988;56;1139056;-73
2022/09/22 06:41:05;;;;;;;10.37;3.60;;;;;;;9.13;100.00;101535.66;5055232;58;1138923;-74
2022/09/22 06:46:12;;;;;;;5.73;2.87;;;;;;;9.28;100.00;101540.09;5107400;57;1141073;-73
2022/09/22 06:51:18;;;;;;;5.33;3.17;;;;;;;9.51;100.00;101550.19;5137978;57;1139025;-73
2022/09/22 06:56:25;;;;;;;2.43;1.93;;;;;;;9.79;100.00;101539.36;5138550;57;1139094;-74
2022/09/22 07:01:32;;;;;;;6.97;2.77;;;;;;;10.08;100.00;101537.67;5138310;57;1139279;-73
2022/09/22 07:06:39;;;;;;;2.37;1.97;;;;;;;10.25;100.00;101529.59;5139099;57;1141216;-72
2022/09/22 07:11:46;;;;;;;3.83;2.33;;;;;;;10.43;100.00;101527.64;5138380;57;1141050;-72
2022/09/22 07:16:54;;;;;;;6.07;2.00;;;;;;;10.86;100.00;101525.36;5138302;57;1141339;-73
2022/09/22 07:22:01;;;;;;;7.30;2.90;;;;;;;11.13;100.00;101525.44;5138492;57;1141319;-73
2022/09/22 07:27:09;;;;;;;3.60;2.17;;;;;;;11.42;100.00;101534.63;5098452;57;1141124;-73
2022/09/22 07:32:15;;;;;;;3.07;2.40;;;;;;;11.76;100.00;101542.09;5055318;58;1141295;-72
2022/09/22 07:37:22;;;;;;;5.40;2.20;;;;;;;11.90;100.00;101535.41;5104457;57;1141125;-72
2022/09/22 07:42:28;;;;;;;9.60;1.77;;;;;;;12.09;100.00;101544.27;4989368;58;1141192;-73
2022/09/22 07:52:58;;;;;;;3.87;1.57;;;;;;;12.74;100.00;101534.90;5038503;58;1141380;-72
2022/09/22 07:58:05;;;;;;;4.83;2.30;;;;;;;12.89;100.00;101529.83;5072250;58;1141164;-73
2022/09/22 08:03:11;;;;;;;4.13;2.00;;;;;;;13.03;98.66;101532.34;5071670;58;1141263;-73
2022/09/22 08:08:17;;;;;;;6.23;1.90;;;;;;;13.20;97.55;101528.51;5071505;58;1138959;-73
2022/09/22 08:13:23;;;;;;;4.13;2.30;;;;;;;13.35;97.81;101528.72;5071588;58;1139169;-71
2022/09/22 08:18:29;;;;;;;3.43;1.60;;;;;;;13.64;97.79;101527.90;5071595;58;1138727;-71
2022/09/22 08:23:36;;;;;;;6.43;2.03;;;;;;;13.69;95.52;101530.22;5071457;58;1139033;-71
2022/09/22 08:28:41;;;;;;;7.07;1.93;;;;;;;13.77;96.41;101531.81;5070904;58;1139070;-72
2022/09/22 08:33:50;;;;;;;3.63;1.87;;;;;;;14.12;97.66;101533.15;5071488;58;1139274;-71
2022/09/22 08:38:58;;;;;;;2.00;1.60;;;;;;;14.43;96.26;101530.34;5004443;58;1139098;-72
2022/09/22 08:44:12;;;;;;;2.00;1.13;;;;;;;14.50;93.63;101528.91;4992526;58;1138983;-72
2022/09/22 08:55:19;;;;;;;2.90;1.23;;;;;;;14.76;92.51;101526.85;4916248;59;1137106;-71
2022/09/22 09:00:31;;;;;;;6.20;2.30;;;;;;;14.93;92.60;101525.52;4912476;59;1136836;-71
2022/09/22 09:06:05;;;;;;;5.72;1.00;;;;;;;15.35;93.30;101519.38;4915913;59;1137022;-71
2022/09/22 09:11:50;;;;;;;6.03;1.20;;;;;;;15.32;89.59;101516.11;4994333;58;1134908;-71
2022/09/22 09:17:11;;;;;;;2.83;0.97;;;;;;;15.46;90.19;101513.16;4994431;58;1139299;-71
2022/09/22 09:22:33;;;;;;;1.83;0.70;;;;;;;15.77;90.82;101504.34;4994376;58;1139343;-72
2022/09/22 09:27:43;;;;;;;1.93;0.50;;;;;;;16.11;87.91;101506.34;5042176;57;1138945;-72
2022/09/22 09:33:01;;;;;;;3.63;1.10;;;;;;;16.25;84.25;101505.65;4995941;58;1139017;-71
2022/09/22 09:38:13;;;;;;;3.40;1.47;;;;;;;16.18;84.61;101505.34;5060216;57;1139043;-72
2022/09/22 09:43:22;;;;;;;6.13;1.80;;;;;;;16.30;84.84;101508.29;5118960;57;1138742;-71
2022/09/22 09:48:41;;;;;;;3.53;0.63;;;;;;;16.25;80.56;101507.83;5138450;57;1139047;-73
2022/09/22 09:53:48;;;;;;;1.67;1.57;;;;;;;16.18;79.91;101505.34;5116994;57;1138944;-72
2022/09/22 10:04:34;;;;;;;5.20;0.77;;;;;;;15.74;79.11;101512.59;5138315;57;1139296;-72
2022/09/22 10:09:41;;;;;;;4.93;1.30;;;;;;;15.97;81.35;101505.34;5218859;56;1139027;-72
2022/09/22 10:14:57;;;;;;;0.77;0.60;;;;;;;16.27;78.70;101496.53;5224367;56;1136947;-73
2022/09/22 10:20:27;;;;;;;5.53;0.73;;;;;;;16.44;73.04;101499.94;5164540;56;1137219;-72
2022/09/22 10:25:32;;;;;;;0.40;0.40;;;;;;;16.58;76.87;101504.08;5050380;58;1136951;-73
2022/09/22 10:30:39;;;;;;;4.10;0.50;;;;;;;16.76;73.57;101492.30;5099078;57;1136399;-71
2022/09/22 10:35:55;;;;;;;1.50;0.36;;;;;;;17.04;76.02;101497.38;5138992;57;1136950;-75
2022/09/22 10:41:08;;;;;;;0.35;0.35;;;;;;;17.04;73.15;101498.22;5060285;58;1136955;-71
2022/09/22 10:46:57;;;;;;;1.20;0.65;;;;;;;16.81;73.87;101500.25;5068388;57;1137017;-73
2022/09/22 10:52:10;;;;;;;2.73;0.40;;;;;;;16.68;73.92;101504.13;5102483;57;1138862;-73
2022/09/22 10:57:32;;;;;;;1.10;0.70;;;;;;;16.55;75.32;101494.98;5151916;57;1139075;-72
2022/09/22 11:03:23;;;;;;;1.13;0.60;;;;;;;16.33;73.40;101498.69;5238544;56;1138975;-73
2022/09/22 11:14:17;;;;;;;0.67;0.30;;;;;;;16.46;69.71;101483.30;5238428;56;1138983;-73
2022/09/22 11:19:43;;;;;;;1.63;0.30;;;;;;;16.57;68.86;101474.34;5162345;56;1138950;-74
2022/09/22 11:25:08;;;;;;;2.90;0.47;;;;;;;16.61;71.14;101474.43;5129948;56;1138959;-70
2022/09/22 11:30:21;;;;;;;1.50;0.50;;;;;;;16.79;72.41;101472.00;5069155;57;1137151;-73
2022/09/22 11:35:44;;;;;;;1.60;0.90;;;;;;;16.92;70.60;101469.08;5141794;57;1137096;-71
2022/09/22 11:41:41;;;;;;;1.50;0.87;;;;;;;17.20;72.17;101469.62;5157696;56;1136875;-68
2022/09/22 11:47:33;;;;;;;1.97;1.10;;;;;;;17.16;70.78;101474.89;5045556;58;1139624;-67
2022/09/22 11:53:08;;;;;;;1.53;0.87;;;;;;;16.81;70.39;101468.67;5107534;57;1139089;-62
2022/09/22 11:58:18;;;;;;;0.93;0.50;;;;;;;16.36;69.05;101477.53;5151428;57;1138942;-63
2022/09/22 12:03:30;;;;;;;1.27;0.67;;;;;;;16.12;69.72;101476.50;5237713;56;1139012;-66
2022/09/22 12:08:41;;;;;;;0.40;0.40;;;;;;;15.94;70.75;101475.39;5148324;57;1139058;-62
2022/09/22 12:13:52;;;;;;;3.20;0.67;;;;;;;15.79;70.75;101473.05;5148300;57;1139063;-67
2022/09/22 12:19:04;;;;;;;1.27;1.17;;;;;;;15.62;70.97;101454.10;5237618;56;1139015;-65
2022/09/22 12:24:12;;;;;;;6.63;1.00;;;;;;;15.66;71.87;101468.88;5157489;56;1138974;-65
2022/09/22 12:29:22;;;;;;;4.03;0.80;;;;;;;15.63;71.99;101459.31;5150875;57;1139027;-66
2022/09/22 12:34:38;;;;;;;2.07;0.80;;;;;;;15.67;72.26;101455.91;5233701;56;1139118;-64
2022/09/22 12:39:46;;;;;;;2.30;0.60;;;;;;;15.63;72.10;101456.64;5150413;56;1138998;-67
2022/09/22 12:45:16;;;;;;;2.93;0.50;;;;;;;15.65;72.24;101446.70;5176054;56;1138981;-63
2022/09/22 12:50:35;;;;;;;2.32;1.10;;;;;;;15.65;71.78;101449.36;5217224;56;1137069;-65
2022/09/22 12:55:41;;;;;;;3.23;1.10;;;;;;;15.75;73.35;101448.94;5223676;56;1137130;-65
2022/09/22 13:00:51;;;;;;;0.98;0.90;;;;;;;15.95;73.84;101445.07;5137781;57;1137196;-62
2022/09/22 13:06:17;;;;;;;5.67;1.90;;;;;;;15.99;73.10;101446.51;5132948;57;1137070;-63
2022/09/22 13:12:13;;;;;;;1.43;0.53;;;;;;;15.97;72.62;101449.30;5133104;57;1137066;-64
2022/09/22 13:17:48;;;;;;;4.97;0.90;;;;;;;15.83;70.48;101445.63;5138101;57;1141393;-68
2022/09/22 13:22:55;;;;;;;0.90;0.70;;;;;;;15.74;72.69;101444.58;5137491;57;1139232;-63
2022/09/22 13:28:14;;;;;;;3.10;1.33;;;;;;;15.80;73.49;101442.73;5133194;57;1139040;-63
2022/09/22 13:33:25;;;;;;;5.93;0.80;;;;;;;15.85;71.61;101439.69;5106343;57;1138971;-63
2022/09/22 13:38:35;;;;;;;1.60;0.67;;;;;;;15.86;71.64;101437.86;5156822;56;1139249;-67
2022/09/22 13:43:46;;;;;;;3.47;0.50;;;;;;;15.83;72.34;101429.14;5088245;57;1138984;-66
2022/09/22 13:48:55;;;;;;;1.50;0.33;;;;;;;15.83;71.79;101425.62;5150983;57;1139071;-63
2022/09/22 13:54:03;;;;;;;1.57;0.67;;;;;;;15.75;71.39;101424.93;5220336;56;1139038;-63
2022/09/22 13:59:11;;;;;;;4.07;2.73;;;;;;;15.69;71.80;101426.80;5151110;57;1139054;-66
2022/09/22 14:04:27;;;;;;;1.20;1.10;;;;;;;15.71;72.66;101418.67;5237713;56;1139000;-64
2022/09/22 14:09:37;;;;;;;2.70;2.03;;;;;;;15.78;72.55;101426.02;5151315;57;1139020;-66
2022/09/22 14:14:43;;;;;;;1.47;1.33;;;;;;;15.72;72.22;101429.22;5208284;56;1138987;-63
2022/09/22 14:20:04;;;;;;;6.33;1.03;;;;;;;15.65;71.86;101427.18;5196155;56;1139062;-64
2022/09/22 14:25:21;;;;;;;11.07;5.77;;;;;;;15.78;73.45;101416.67;5206459;56;1139019;-63
2022/09/22 14:30:29;;;;;;;1.77;1.30;;;;;;;15.93;73.10;101415.85;5237213;56;1141399;-66
2022/09/22 14:35:37;;;;;;;4.10;1.23;;;;;;;15.95;72.73;101412.56;5160845;56;1139091;-68
2022/09/22 14:40:52;;;;;;;1.13;0.70;;;;;;;15.94;72.53;101413.55;5121124;57;1136975;-65
2022/09/22 14:46:02;;;;;;;1.80;0.80;;;;;;;15.79;72.40;101404.19;5215587;56;1137158;-66
2022/09/22 14:51:21;;;;;;;0.50;0.50;;;;;;;15.72;72.68;101409.21;5235620;56;1137070;-63
2022/09/22 14:56:31;;;;;;;1.40;0.80;;;;;;;15.59;72.87;101402.36;5149587;57;1136900;-64
2022/09/22 15:07:00;;;;;;;3.05;2.42;;;;;;;15.38;73.04;101396.52;5149695;57;1136847;-62
2022/09/22 15:12:08;;;;;;;4.33;1.93;;;;;;;15.26;72.86;101394.03;5186247;56;1136916;-65
2022/09/22 15:23:03;;;;;;;5.17;2.40;;;;;;;15.12;73.69;101392.52;5151293;57;1138905;-63
2022/09/22 15:28:19;;;;;;;1.33;1.23;;;;;;;15.18;74.47;101395.14;5155115;56;1138943;-66
2022/09/22 15:33:25;;;;;;;4.73;1.50;;;;;;;15.30;74.17;101396.77;5113356;56;1139351;-64
2022/09/22 15:38:34;;;;;;;5.00;1.40;;;;;;;15.41;73.92;101398.08;5184544;56;1139203;-62
2022/09/22 15:43:41;;;;;;;6.13;5.13;;;;;;;15.58;73.88;101384.70;5075286;57;1139069;-63
2022/09/22 15:48:47;;;;;;;4.40;3.80;;;;;;;15.76;73.64;101385.77;5137901;57;1139185;-62
2022/09/22 15:53:53;;;;;;;5.13;2.40;;;;;;;15.90;73.80;101383.25;5204227;56;1139023;-67
2022/09/22 15:59:00;;;;;;;8.60;5.50;;;;;;;15.97;73.04;101384.42;5136102;57;1139226;-67
2022/09/22 16:04:06;;;;;;;11.23;5.93;;;;;;;15.92;71.44;101380.80;5223793;56;1139001;-67
2022/09/22 16:09:16;;;;;;;12.70;7.67;;;;;;;15.96;72.78;101380.06;5161062;56;1141320;-72
2022/09/22 16:14:25;;;;;;;8.90;3.67;;;;;;;15.98;73.30;101371.44;5054957;58;1141257;-72
2022/09/22 16:19:30;;;;;;;7.90;3.77;;;;;;;15.99;72.77;101373.98;5052948;58;1139049;-72
2022/09/22 16:24:36;;;;;;;8.17;4.30;;;;;;;15.85;71.96;101378.82;5137754;57;1139025;-71
2022/09/22 16:29:43;;;;;;;2.37;1.67;;;;;;;15.67;72.73;101373.23;5138051;57;1139219;-72
2022/09/22 16:34:48;;;;;;;9.63;1.53;;;;;;;15.53;73.17;101371.71;5125353;57;1139018;-71
2022/09/22 16:39:54;;;;;;;3.23;1.43;;;;;;;15.37;73.62;101370.83;5085769;57;1139345;-74
2022/09/22 16:45:00;;;;;;;2.70;2.07;;;;;;;15.23;74.23;101375.63;5169618;56;1139038;-73
2022/09/22 16:50:11;;;;;;;5.83;3.57;;;;;;;15.09;74.84;101378.11;5143182;56;1138987;-73
2022/09/22 16:55:13;;;;;;;5.93;4.03;;;;;;;15.05;75.97;101377.99;5153907;56;1139283;-72
2022/09/22 17:00:20;;;;;;;6.23;3.77;;;;;;;15.00;76.35;101376.19;5137785;56;1138995;-73
2022/09/22 17:05:26;;;;;;;11.93;5.63;;;;;;;14.95;77.02;101375.25;5154957;56;1139013;-74
2022/09/22 17:10:34;;;;;;;103.40;23.57;;;;;;;14.90;77.41;101377.92;5157072;56;1141072;-72
2022/09/22 17:15:40;;;;;;;52.23;16.47;;;;;;;14.83;77.65;101377.56;5158225;56;1145232;-74
2022/09/22 17:20:46;;;;;;;51.50;18.77;;;;;;;14.70;77.57;101377.73;5154591;56;1143176;-71
2022/09/22 17:25:52;;;;;;;59.33;29.00;;;;;;;14.50;77.84;101380.33;5143700;56;1143386;-67
2022/09/22 17:30:59;;;;;;;47.97;21.53;;;;;;;14.32;78.27;101377.28;5182540;56;1143182;-74
2022/09/22 17:36:06;;;;;;;28.77;14.10;;;;;;;13.98;78.40;101377.28;5148730;56;1142588;-74
2022/09/22 17:41:12;;;;;;;30.20;16.27;;;;;;;13.59;79.01;101383.03;5145478;56;1143397;-65
2022/09/22 17:46:18;;;;;;;33.07;15.13;;;;;;;13.49;79.90;101386.00;5146600;56;1141091;-72
2022/09/22 17:56:56;;;;;;;89.13;32.63;;;;;;;13.62;81.27;101384.95;5187152;56;1141330;-72
2022/09/22 18:02:03;;;;;;;130.50;50.60;;;;;;;13.66;81.57;101386.41;5156722;56;1141026;-71
2022/09/22 18:07:16;;;;;;;131.70;54.43;;;;;;;13.68;81.91;101388.48;5122129;56;1143439;-72
2022/09/22 18:12:23;;;;;;;125.20;51.70;;;;;;;13.63;81.93;101390.63;5150739;56;1143425;-72
2022/09/22 18:17:32;;;;;;;137.87;57.33;;;;;;;13.59;81.90;101389.20;5172705;56;1143066;-72
2022/09/22 18:22:38;;;;;;;131.27;58.97;;;;;;;13.50;81.75;101399.66;5172518;56;1143196;-63
2022/09/22 18:27:47;;;;;;;131.40;58.33;;;;;;;13.34;81.59;101406.61;5119407;57;1143162;-69
2022/09/22 18:32:53;;;;;;;138.13;61.00;;;;;;;13.21;81.88;101408.02;5065181;57;1143369;-70
2022/09/22 18:37:59;;;;;;;133.27;61.30;;;;;;;13.09;82.00;101408.89;5206178;56;1141073;-65
2022/09/22 18:43:07;;;;;;;98.57;47.97;;;;;;;12.93;82.10;101410.50;5219628;56;1141104;-73
2022/09/22 18:48:16;;;;;;;147.83;73.70;;;;;;;12.81;81.98;101411.41;5052037;57;1143124;-72
2022/09/22 18:53:21;;;;;;;160.63;79.83;;;;;;;12.81;82.53;101407.42;5105022;57;1145402;-73
2022/09/22 18:58:27;;;;;;;138.70;68.70;;;;;;;12.79;82.44;101405.36;5103000;56;1145233;-72
2022/09/22 19:03:32;;;;;;;125.70;66.00;;;;;;;12.54;81.82;101406.26;5145403;56;1145492;-72
2022/09/22 19:08:39;;;;;;;128.20;64.73;;;;;;;12.39;82.96;101412.66;5101988;56;1145325;-72
2022/09/22 19:13:46;;;;;;;99.00;57.00;;;;;;;12.22;82.46;101410.37;5110215;57;1145480;-73
2022/09/22 19:18:52;;;;;;;121.50;62.30;;;;;;;11.79;82.48;101413.80;5085722;57;1143399;-72
2022/09/22 19:23:58;;;;;;;102.40;53.03;;;;;;;11.62;83.59;101414.44;5091864;57;1145569;-72
2022/09/22 19:29:06;;;;;;;98.10;48.80;;;;;;;11.64;84.07;101420.48;5089783;57;1145225;-72
2022/09/22 19:34:13;;;;;;;98.03;48.87;;;;;;;11.74;84.75;101416.75;5090013;57;1143221;-73
2022/09/22 19:39:19;;;;;;;103.63;56.83;;;;;;;11.82;84.71;101427.70;5164580;56;1143128;-72
2022/09/22 19:44:25;;;;;;;122.83;60.33;;;;;;;11.84;84.95;101421.82;5100531;57;1145760;-72
2022/09/22 19:49:31;;;;;;;123.07;59.73;;;;;;;11.78;84.35;101429.33;5092817;56;1145301;-72
2022/09/22 19:54:37;;;;;;;92.73;50.33;;;;;;;11.60;83.95;101428.30;5165390;56;1145310;-72
2022/09/22 19:59:43;;;;;;;107.93;51.80;;;;;;;11.24;83.71;101426.76;5146196;56;1143340;-73
2022/09/22 20:04:49;;;;;;;89.87;47.60;;;;;;;11.08;84.82;101430.03;5050512;58;1145276;-72
2022/09/22 20:09:55;;;;;;;97.00;48.87;;;;;;;11.11;85.26;101424.55;5066702;57;1143116;-72
2022/09/22 20:15:01;;;;;;;105.83;49.50;;;;;;;11.21;85.63;101430.92;5061656;57;1144001;-73
2022/09/22 20:20:09;;;;;;;117.27;56.60;;;;;;;11.30;85.73;101432.14;5091219;57;1145181;-72
2022/09/22 20:25:25;;;;;;;103.53;49.27;;;;;;;11.32;85.63;101428.41;5056477;57;1145301;-72
2022/09/22 20:30:30;;;;;;;81.47;43.80;;;;;;;11.24;85.32;101423.64;5055191;57;1145080;-73
2022/09/22 20:35:36;;;;;;;73.07;34.97;;;;;;;11.17;85.25;101423.65;5050458;57;1143161;-72
2022/09/22 20:40:42;;;;;;;74.53;35.90;;;;;;;11.09;84.87;101419.82;5056302;57;1143180;-73
2022/09/22 20:45:48;;;;;;;73.90;37.27;;;;;;;10.96;85.10;101421.09;5138225;57;1143182;-72
2022/09/22 20:50:59;;;;;;;85.73;42.00;;;;;;;10.87;84.93;101411.94;5152946;57;1143555;-72
2022/09/22 20:56:09;;;;;;;83.07;42.90;;;;;;;10.82;84.61;101407.91;5155646;57;1143129;-72
2022/09/22 21:01:17;;;;;;;109.73;55.40;;;;;;;10.54;83.99;101416.77;5198469;56;1143447;-72
2022/09/22 21:06:23;;;;;;;111.03;51.27;;;;;;;10.29;84.80;101407.32;5174053;56;1145797;-72
2022/09/22 21:11:31;;;;;;;119.77;57.83;;;;;;;10.22;85.43;101410.84;5135441;57;1145282;-72
2022/09/22 21:16:38;;;;;;;110.43;54.63;;;;;;;10.25;86.23;101399.20;5135362;57;1145487;-71
2022/09/22 21:21:44;;;;;;;91.03;45.63;;;;;;;10.26;86.29;101398.25;5102532;57;1145270;-72
2022/09/22 21:26:50;;;;;;;86.50;39.70;;;;;;;10.25;85.92;101402.69;5094373;57;1143462;-72
2022/09/22 21:31:56;;;;;;;96.27;46.43;;;;;;;10.21;85.88;101400.73;5101651;57;1143712;-72
2022/09/22 21:37:03;;;;;;;108.43;52.30;;;;;;;10.14;85.03;101395.87;5109055;57;1143394;-72
2022/09/22 21:42:09;;;;;;;77.43;37.97;;;;;;;10.07;85.61;101394.57;5155386;57;1143372;-73
2022/09/22 21:47:15;;;;;;;68.53;36.03;;;;;;;10.10;86.28;101403.13;5094249;57;1141203;-71
2022/09/22 21:52:21;;;;;;;75.00;38.00;;;;;;;10.11;86.18;101394.73;5194802;56;1141270;-72
2022/09/22 21:57:27;;;;;;;74.50;37.63;;;;;;;10.08;85.90;101407.66;5241909;56;1141267;-72
2022/09/22 22:03:29;;;;;;;68.80;34.93;;;;;;;10.00;85.73;101398.05;5242021;56;1140977;-72
2022/09/22 22:07:40;;;;;;;95.13;44.57;;;;;;;9.83;84.90;101398.22;5237308;56;1141074;-72
2022/09/22 22:12:46;;;;;;;82.83;40.83;;;;;;;9.51;84.89;101400.98;5242183;56;1139061;-72
2022/09/22 22:17:52;;;;;;;91.27;42.53;;;;;;;9.48;85.85;101401.63;5242080;56;1138893;-72
2022/09/22 22:22:58;;;;;;;91.17;42.97;;;;;;;9.49;86.32;101394.09;5167987;56;1139077;-72
2022/09/22 22:28:04;;;;;;;79.57;40.30;;;;;;;9.54;86.05;101399.97;5125182;57;1139137;-72
2022/09/22 22:33:10;;;;;;;76.77;37.20;;;;;;;9.54;86.05;101399.97;5072409;58;1138948;-72
2022/09/22 22:38:15;;;;;;;81.47;36.80;;;;;;;9.49;85.74;101394.95;5047393;58;1138992;-72
2022/09/22 22:43:22;;;;;;;61.17;30.87;;;;;;;9.29;85.05;101395.75;5046522;58;1139477;-72
2022/09/22 22:48:30;;;;;;;43.93;21.87;;;;;;;8.82;84.63;101399.32;5063200;58;1136903;-72
2022/09/22 22:53:36;;;;;;;53.27;24.93;;;;;;;8.63;85.98;101395.53;5200293;56;1139114;-72
2022/09/22 22:58:43;;;;;;;55.37;26.10;;;;;;;8.76;87.20;101386.46;5228643;56;1138960;-72
2022/09/22 23:03:53;;;;;;;55.20;25.07;;;;;;;8.86;87.21;101385.50;5229208;56;1138967;-73
2022/09/22 23:08:59;;;;;;;44.97;23.23;;;;;;;8.79;86.99;101382.34;5182331;56;1136982;-72
2022/09/22 23:14:10;;;;;;;43.08;20.52;;;;;;;8.69;86.66;101380.70;5220976;56;1141265;-74
2022/09/22 23:19:18;;;;;;;45.77;21.27;;;;;;;8.71;87.16;101380.13;5188242;56;1141214;-72
2022/09/22 23:24:23;;;;;;;38.90;19.37;;;;;;;8.61;86.80;101373.67;5066138;57;1138921;-72
2022/09/22 23:29:29;;;;;;;37.97;17.93;;;;;;;8.60;86.95;101371.11;5228750;56;1138988;-72
2022/09/22 23:34:35;;;;;;;38.50;17.57;;;;;;;8.53;86.56;101377.69;5228778;56;1141187;-73
2022/09/22 23:39:41;;;;;;;38.30;19.07;;;;;;;8.52;86.81;101366.28;5216561;56;1141052;-73
2022/09/22 23:44:47;;;;;;;38.57;20.50;;;;;;;8.61;87.20;101369.72;5218371;56;1141119;-72
2022/09/22 23:49:53;;;;;;;34.97;18.27;;;;;;;8.64;87.12;101360.78;5142258;57;1141213;-72
2022/09/22 23:54:59;;;;;;;31.40;16.53;;;;;;;8.64;87.26;101355.05;5241535;55;1141140;-72
